sensor_id;sensor_type;location;lat;lon;timestamp;temperature;humidity
14924;DHT22;7554;43.600;1.480;2023-06-26T00:02:25;23.70;1.00
14924;DHT22;7554;43.600;1.480;2023-06-26T00:04:52;23.70;1.00
14924;DHT22;7554;43.600;1.480;2023-06-26T00:07:20;23.70;1.00
14924;DHT22;7554;43.600;1.480;2023-06-26T00:09:47;23.80;1.00
14924;DHT22;7554;43.600;1.480;2023-06-26T00:12:14;23.70;1.00
14924;DHT22;7554;43.600;1.480;2023-06-26T00:14:43;23.50;1.00
14924;DHT22;7554;43.600;1.480;2023-06-26T00:17:12;23.50;1.00
14924;DHT22;7554;43.600;1.480;2023-06-26T00:19:39;23.50;1.00
14924;DHT22;7554;43.600;1.480;2023-06-26T00:22:06;23.50;1.00
14924;DHT22;7554;43.600;1.480;2023-06-26T00:24:33;23.50;1.00
14924;DHT22;7554;43.600;1.480;2023-06-26T00:27:01;23.50;1.00
14924;DHT22;7554;43.600;1.480;2023-06-26T00:29:28;23.60;1.00
14924;DHT22;7554;43.600;1.480;2023-06-26T00:31:57;23.60;1.00
14924;DHT22;7554;43.600;1.480;2023-06-26T00:34:24;23.60;1.00
14924;DHT22;7554;43.600;1.480;2023-06-26T00:36:51;23.60;1.00
14924;DHT22;7554;43.600;1.480;2023-06-26T00:39:19;23.50;1.00
14924;DHT22;7554;43.600;1.480;2023-06-26T00:41:46;23.40;1.00
14924;DHT22;7554;43.600;1.480;2023-06-26T00:44:13;23.40;1.00
14924;DHT22;7554;43.600;1.480;2023-06-26T00:46:40;23.40;1.00
14924;DHT22;7554;43.600;1.480;2023-06-26T00:49:10;23.40;1.00
14924;DHT22;7554;43.600;1.480;2023-06-26T00:51:37;23.40;1.00
14924;DHT22;7554;43.600;1.480;2023-06-26T00:54:05;23.30;1.00
14924;DHT22;7554;43.600;1.480;2023-06-26T00:56:33;23.30;1.00
14924;DHT22;7554;43.600;1.480;2023-06-26T00:59:01;23.20;1.00
14924;DHT22;7554;43.600;1.480;2023-06-26T01:01:28;23.20;1.00
14924;DHT22;7554;43.600;1.480;2023-06-26T01:03:56;23.20;1.00
14924;DHT22;7554;43.600;1.480;2023-06-26T01:06:27;23.30;1.00
14924;DHT22;7554;43.600;1.480;2023-06-26T01:08:58;23.20;1.00
14924;DHT22;7554;43.600;1.480;2023-06-26T01:11:25;23.20;1.00
14924;DHT22;7554;43.600;1.480;2023-06-26T01:13:53;23.30;1.00
14924;DHT22;7554;43.600;1.480;2023-06-26T01:16:21;23.30;1.00
14924;DHT22;7554;43.600;1.480;2023-06-26T01:18:50;23.30;1.00
14924;DHT22;7554;43.600;1.480;2023-06-26T01:21:18;23.20;1.00
14924;DHT22;7554;43.600;1.480;2023-06-26T01:23:58;23.30;1.00
14924;DHT22;7554;43.600;1.480;2023-06-26T01:26:32;23.20;1.00
14924;DHT22;7554;43.600;1.480;2023-06-26T01:29:03;23.20;1.00
14924;DHT22;7554;43.600;1.480;2023-06-26T01:31:31;23.20;1.00
14924;DHT22;7554;43.600;1.480;2023-06-26T01:34:01;23.20;1.00
14924;DHT22;7554;43.600;1.480;2023-06-26T01:36:28;23.10;1.00
14924;DHT22;7554;43.600;1.480;2023-06-26T01:38:56;23.20;1.00
14924;DHT22;7554;43.600;1.480;2023-06-26T01:41:23;23.10;1.00
14924;DHT22;7554;43.600;1.480;2023-06-26T01:44:05;23.20;1.00
14924;DHT22;7554;43.600;1.480;2023-06-26T01:46:39;23.00;1.00
14924;DHT22;7554;43.600;1.480;2023-06-26T01:49:10;23.00;1.00
14924;DHT22;7554;43.600;1.480;2023-06-26T01:51:42;23.00;1.00
14924;DHT22;7554;43.600;1.480;2023-06-26T01:54:17;22.90;1.00
14924;DHT22;7554;43.600;1.480;2023-06-26T01:56:49;22.90;1.00
14924;DHT22;7554;43.600;1.480;2023-06-26T01:59:19;23.00;1.00
14924;DHT22;7554;43.600;1.480;2023-06-26T02:01:47;23.00;1.00
14924;DHT22;7554;43.600;1.480;2023-06-26T02:04:15;23.10;1.00
14924;DHT22;7554;43.600;1.480;2023-06-26T02:06:42;23.00;1.00
14924;DHT22;7554;43.600;1.480;2023-06-26T02:09:09;23.00;1.00
14924;DHT22;7554;43.600;1.480;2023-06-26T02:11:37;23.00;1.00
14924;DHT22;7554;43.600;1.480;2023-06-26T02:14:04;23.00;1.00
14924;DHT22;7554;43.600;1.480;2023-06-26T02:16:33;23.00;1.00
14924;DHT22;7554;43.600;1.480;2023-06-26T02:19:00;23.00;1.00
14924;DHT22;7554;43.600;1.480;2023-06-26T02:21:27;23.00;1.00
14924;DHT22;7554;43.600;1.480;2023-06-26T02:23:54;23.00;1.00
14924;DHT22;7554;43.600;1.480;2023-06-26T02:26:22;23.00;1.00
14924;DHT22;7554;43.600;1.480;2023-06-26T02:28:49;23.00;1.00
14924;DHT22;7554;43.600;1.480;2023-06-26T02:31:16;23.00;1.00
14924;DHT22;7554;43.600;1.480;2023-06-26T02:33:45;23.10;1.00
14924;DHT22;7554;43.600;1.480;2023-06-26T02:36:12;23.00;1.00
14924;DHT22;7554;43.600;1.480;2023-06-26T02:38:40;23.00;1.00
14924;DHT22;7554;43.600;1.480;2023-06-26T02:41:07;23.00;1.00
14924;DHT22;7554;43.600;1.480;2023-06-26T02:43:34;23.00;1.00
14924;DHT22;7554;43.600;1.480;2023-06-26T02:46:01;23.00;1.00
14924;DHT22;7554;43.600;1.480;2023-06-26T02:48:29;22.90;1.00
14924;DHT22;7554;43.600;1.480;2023-06-26T02:50:57;22.90;1.00
14924;DHT22;7554;43.600;1.480;2023-06-26T02:53:25;22.90;1.00
14924;DHT22;7554;43.600;1.480;2023-06-26T02:55:52;22.90;1.00
14924;DHT22;7554;43.600;1.480;2023-06-26T02:58:19;22.90;1.00
14924;DHT22;7554;43.600;1.480;2023-06-26T03:00:46;22.90;1.00
14924;DHT22;7554;43.600;1.480;2023-06-26T03:03:14;22.90;1.00
14924;DHT22;7554;43.600;1.480;2023-06-26T03:05:41;22.90;1.00
14924;DHT22;7554;43.600;1.480;2023-06-26T03:08:10;22.80;1.00
14924;DHT22;7554;43.600;1.480;2023-06-26T03:10:37;22.80;1.00
14924;DHT22;7554;43.600;1.480;2023-06-26T03:13:04;22.80;1.00
14924;DHT22;7554;43.600;1.480;2023-06-26T03:15:32;22.80;1.00
14924;DHT22;7554;43.600;1.480;2023-06-26T03:17:59;22.80;1.00
14924;DHT22;7554;43.600;1.480;2023-06-26T03:20:26;22.80;1.00
14924;DHT22;7554;43.600;1.480;2023-06-26T03:22:54;22.80;1.00
14924;DHT22;7554;43.600;1.480;2023-06-26T03:25:22;22.90;1.00
14924;DHT22;7554;43.600;1.480;2023-06-26T03:27:50;22.80;1.00
14924;DHT22;7554;43.600;1.480;2023-06-26T03:30:17;22.70;1.00
14924;DHT22;7554;43.600;1.480;2023-06-26T03:32:45;22.70;1.00
14924;DHT22;7554;43.600;1.480;2023-06-26T03:35:12;22.70;1.00
14924;DHT22;7554;43.600;1.480;2023-06-26T03:37:39;22.70;1.00
14924;DHT22;7554;43.600;1.480;2023-06-26T03:40:08;22.60;1.00
14924;DHT22;7554;43.600;1.480;2023-06-26T03:42:37;22.70;1.00
14924;DHT22;7554;43.600;1.480;2023-06-26T03:45:05;22.60;1.00
14924;DHT22;7554;43.600;1.480;2023-06-26T03:47:32;22.60;1.00
14924;DHT22;7554;43.600;1.480;2023-06-26T03:50:00;22.60;1.00
14924;DHT22;7554;43.600;1.480;2023-06-26T03:52:27;22.60;1.00
14924;DHT22;7554;43.600;1.480;2023-06-26T03:54:56;22.60;1.00
14924;DHT22;7554;43.600;1.480;2023-06-26T03:57:24;22.60;1.00
14924;DHT22;7554;43.600;1.480;2023-06-26T03:59:52;22.50;1.00
14924;DHT22;7554;43.600;1.480;2023-06-26T04:02:20;22.50;1.00
14924;DHT22;7554;43.600;1.480;2023-06-26T04:04:47;22.50;1.00
14924;DHT22;7554;43.600;1.480;2023-06-26T04:07:14;22.50;1.00
14924;DHT22;7554;43.600;1.480;2023-06-26T04:09:42;22.50;1.00
14924;DHT22;7554;43.600;1.480;2023-06-26T04:12:09;22.40;1.00
14924;DHT22;7554;43.600;1.480;2023-06-26T04:14:36;22.40;1.00
14924;DHT22;7554;43.600;1.480;2023-06-26T04:17:05;22.40;1.00
14924;DHT22;7554;43.600;1.480;2023-06-26T04:19:32;22.50;1.00
14924;DHT22;7554;43.600;1.480;2023-06-26T04:22:01;22.50;1.00
14924;DHT22;7554;43.600;1.480;2023-06-26T04:24:29;22.50;1.00
14924;DHT22;7554;43.600;1.480;2023-06-26T04:26:56;22.40;1.00
14924;DHT22;7554;43.600;1.480;2023-06-26T04:29:24;22.40;1.00
14924;DHT22;7554;43.600;1.480;2023-06-26T04:31:52;22.40;1.00
14924;DHT22;7554;43.600;1.480;2023-06-26T04:34:25;22.30;1.00
14924;DHT22;7554;43.600;1.480;2023-06-26T04:36:53;22.40;1.00
14924;DHT22;7554;43.600;1.480;2023-06-26T04:39:20;22.40;1.00
14924;DHT22;7554;43.600;1.480;2023-06-26T04:41:48;22.40;1.00
14924;DHT22;7554;43.600;1.480;2023-06-26T04:44:15;22.50;1.00
14924;DHT22;7554;43.600;1.480;2023-06-26T04:46:42;22.40;1.00
14924;DHT22;7554;43.600;1.480;2023-06-26T04:49:10;22.40;1.00
14924;DHT22;7554;43.600;1.480;2023-06-26T04:51:39;22.40;1.00
14924;DHT22;7554;43.600;1.480;2023-06-26T04:54:07;22.50;1.00
14924;DHT22;7554;43.600;1.480;2023-06-26T04:56:34;22.40;1.00
14924;DHT22;7554;43.600;1.480;2023-06-26T04:59:02;22.40;1.00
14924;DHT22;7554;43.600;1.480;2023-06-26T05:01:30;22.40;1.00
14924;DHT22;7554;43.600;1.480;2023-06-26T05:03:58;22.30;1.00
14924;DHT22;7554;43.600;1.480;2023-06-26T05:06:25;22.30;1.00
14924;DHT22;7554;43.600;1.480;2023-06-26T05:08:56;22.40;1.00
14924;DHT22;7554;43.600;1.480;2023-06-26T05:11:24;22.30;1.00
14924;DHT22;7554;43.600;1.480;2023-06-26T05:13:51;22.30;1.00
14924;DHT22;7554;43.600;1.480;2023-06-26T05:16:19;22.30;1.00
14924;DHT22;7554;43.600;1.480;2023-06-26T05:18:46;22.40;1.00
14924;DHT22;7554;43.600;1.480;2023-06-26T05:21:14;22.30;1.00
14924;DHT22;7554;43.600;1.480;2023-06-26T05:23:43;22.20;1.00
14924;DHT22;7554;43.600;1.480;2023-06-26T05:26:13;22.10;1.00
14924;DHT22;7554;43.600;1.480;2023-06-26T05:28:41;22.20;1.00
14924;DHT22;7554;43.600;1.480;2023-06-26T05:31:10;22.20;1.00
14924;DHT22;7554;43.600;1.480;2023-06-26T05:33:38;22.30;1.00
14924;DHT22;7554;43.600;1.480;2023-06-26T05:36:07;22.40;1.00
14924;DHT22;7554;43.600;1.480;2023-06-26T05:38:36;22.30;1.00
14924;DHT22;7554;43.600;1.480;2023-06-26T05:41:04;22.40;1.00
14924;DHT22;7554;43.600;1.480;2023-06-26T05:43:33;22.40;1.00
14924;DHT22;7554;43.600;1.480;2023-06-26T05:46:00;22.50;1.00
14924;DHT22;7554;43.600;1.480;2023-06-26T05:48:27;22.60;1.00
14924;DHT22;7554;43.600;1.480;2023-06-26T05:50:55;22.50;1.00
14924;DHT22;7554;43.600;1.480;2023-06-26T05:53:23;22.60;1.00
14924;DHT22;7554;43.600;1.480;2023-06-26T05:55:51;22.60;1.00
14924;DHT22;7554;43.600;1.480;2023-06-26T05:58:20;22.60;1.00
14924;DHT22;7554;43.600;1.480;2023-06-26T06:00:49;22.60;1.00
14924;DHT22;7554;43.600;1.480;2023-06-26T06:03:17;22.60;1.00
14924;DHT22;7554;43.600;1.480;2023-06-26T06:05:44;22.60;1.00
14924;DHT22;7554;43.600;1.480;2023-06-26T06:08:11;22.70;1.00
14924;DHT22;7554;43.600;1.480;2023-06-26T06:10:39;22.70;1.00
14924;DHT22;7554;43.600;1.480;2023-06-26T06:13:06;22.70;1.00
14924;DHT22;7554;43.600;1.480;2023-06-26T06:15:33;22.70;1.00
14924;DHT22;7554;43.600;1.480;2023-06-26T06:18:02;22.90;1.00
14924;DHT22;7554;43.600;1.480;2023-06-26T06:20:29;22.90;1.00
14924;DHT22;7554;43.600;1.480;2023-06-26T06:22:56;23.00;1.00
14924;DHT22;7554;43.600;1.480;2023-06-26T06:25:24;23.00;1.00
14924;DHT22;7554;43.600;1.480;2023-06-26T06:27:51;23.00;1.00
14924;DHT22;7554;43.600;1.480;2023-06-26T06:30:18;23.10;1.00
14924;DHT22;7554;43.600;1.480;2023-06-26T06:32:46;23.20;1.00
14924;DHT22;7554;43.600;1.480;2023-06-26T06:35:17;23.10;1.00
14924;DHT22;7554;43.600;1.480;2023-06-26T06:37:45;23.10;1.00
14924;DHT22;7554;43.600;1.480;2023-06-26T06:40:12;23.20;1.00
14924;DHT22;7554;43.600;1.480;2023-06-26T06:42:40;23.30;1.00
14924;DHT22;7554;43.600;1.480;2023-06-26T06:45:07;23.20;1.00
14924;DHT22;7554;43.600;1.480;2023-06-26T06:47:35;23.30;1.00
14924;DHT22;7554;43.600;1.480;2023-06-26T06:50:02;23.40;1.00
14924;DHT22;7554;43.600;1.480;2023-06-26T06:52:36;23.50;1.00
14924;DHT22;7554;43.600;1.480;2023-06-26T06:55:04;23.50;1.00
14924;DHT22;7554;43.600;1.480;2023-06-26T06:57:34;23.60;1.00
14924;DHT22;7554;43.600;1.480;2023-06-26T07:00:04;23.60;1.00
14924;DHT22;7554;43.600;1.480;2023-06-26T07:02:34;23.60;1.00
14924;DHT22;7554;43.600;1.480;2023-06-26T07:05:02;23.50;1.00
14924;DHT22;7554;43.600;1.480;2023-06-26T07:07:31;23.60;1.00
14924;DHT22;7554;43.600;1.480;2023-06-26T07:10:02;23.80;1.00
14924;DHT22;7554;43.600;1.480;2023-06-26T07:12:30;23.90;1.00
14924;DHT22;7554;43.600;1.480;2023-06-26T07:14:57;24.00;1.00
14924;DHT22;7554;43.600;1.480;2023-06-26T07:17:25;24.00;1.00
14924;DHT22;7554;43.600;1.480;2023-06-26T07:19:52;24.00;1.00
14924;DHT22;7554;43.600;1.480;2023-06-26T07:22:19;24.10;1.00
14924;DHT22;7554;43.600;1.480;2023-06-26T07:24:47;24.20;1.00
14924;DHT22;7554;43.600;1.480;2023-06-26T07:27:16;24.40;1.00
14924;DHT22;7554;43.600;1.480;2023-06-26T07:29:44;24.50;1.00
14924;DHT22;7554;43.600;1.480;2023-06-26T07:32:12;24.60;1.00
14924;DHT22;7554;43.600;1.480;2023-06-26T07:34:39;24.50;1.00
14924;DHT22;7554;43.600;1.480;2023-06-26T07:37:07;24.70;1.00
14924;DHT22;7554;43.600;1.480;2023-06-26T07:39:35;24.80;1.00
14924;DHT22;7554;43.600;1.480;2023-06-26T07:42:02;24.90;1.00
14924;DHT22;7554;43.600;1.480;2023-06-26T07:44:31;25.00;1.00
14924;DHT22;7554;43.600;1.480;2023-06-26T07:46:58;25.00;1.00
14924;DHT22;7554;43.600;1.480;2023-06-26T07:49:26;25.10;1.00
14924;DHT22;7554;43.600;1.480;2023-06-26T07:51:53;25.30;1.00
14924;DHT22;7554;43.600;1.480;2023-06-26T07:54:20;25.50;1.00
14924;DHT22;7554;43.600;1.480;2023-06-26T07:56:55;25.60;1.00
14924;DHT22;7554;43.600;1.480;2023-06-26T07:59:23;25.70;1.00
14924;DHT22;7554;43.600;1.480;2023-06-26T08:01:53;25.90;1.00
14924;DHT22;7554;43.600;1.480;2023-06-26T08:04:22;25.90;1.00
14924;DHT22;7554;43.600;1.480;2023-06-26T08:06:51;25.90;1.00
14924;DHT22;7554;43.600;1.480;2023-06-26T08:09:19;26.20;1.00
14924;DHT22;7554;43.600;1.480;2023-06-26T08:11:47;26.40;1.00
14924;DHT22;7554;43.600;1.480;2023-06-26T08:14:15;26.60;1.00
14924;DHT22;7554;43.600;1.480;2023-06-26T08:16:43;27.10;1.00
14924;DHT22;7554;43.600;1.480;2023-06-26T08:19:12;27.10;1.00
14924;DHT22;7554;43.600;1.480;2023-06-26T08:21:40;27.30;1.00
14924;DHT22;7554;43.600;1.480;2023-06-26T08:24:07;27.20;1.00
14924;DHT22;7554;43.600;1.480;2023-06-26T08:26:35;27.00;1.00
14924;DHT22;7554;43.600;1.480;2023-06-26T08:29:03;26.80;1.00
14924;DHT22;7554;43.600;1.480;2023-06-26T08:31:33;27.20;1.00
14924;DHT22;7554;43.600;1.480;2023-06-26T08:34:01;27.60;1.00
14924;DHT22;7554;43.600;1.480;2023-06-26T08:36:31;27.40;1.00
14924;DHT22;7554;43.600;1.480;2023-06-26T08:38:58;27.80;1.00
14924;DHT22;7554;43.600;1.480;2023-06-26T08:41:26;28.40;1.00
14924;DHT22;7554;43.600;1.480;2023-06-26T08:43:53;30.40;1.00
14924;DHT22;7554;43.600;1.480;2023-06-26T08:46:20;30.70;1.00
14924;DHT22;7554;43.600;1.480;2023-06-26T08:48:49;29.60;1.00
14924;DHT22;7554;43.600;1.480;2023-06-26T08:51:22;28.60;1.00
14924;DHT22;7554;43.600;1.480;2023-06-26T08:53:56;27.90;1.00
14924;DHT22;7554;43.600;1.480;2023-06-26T08:56:25;27.20;1.00
14924;DHT22;7554;43.600;1.480;2023-06-26T08:58:54;26.70;1.00
14924;DHT22;7554;43.600;1.480;2023-06-26T09:01:22;26.40;1.00
14924;DHT22;7554;43.600;1.480;2023-06-26T09:03:51;26.50;1.00
14924;DHT22;7554;43.600;1.480;2023-06-26T09:06:19;27.10;1.00
14924;DHT22;7554;43.600;1.480;2023-06-26T09:08:46;27.70;1.00
14924;DHT22;7554;43.600;1.480;2023-06-26T09:11:15;28.10;1.00
14924;DHT22;7554;43.600;1.480;2023-06-26T09:13:43;28.20;1.00
14924;DHT22;7554;43.600;1.480;2023-06-26T09:16:13;28.50;1.00
14924;DHT22;7554;43.600;1.480;2023-06-26T09:18:41;28.70;1.00
14924;DHT22;7554;43.600;1.480;2023-06-26T09:21:09;28.60;1.00
14924;DHT22;7554;43.600;1.480;2023-06-26T09:23:36;28.30;1.00
14924;DHT22;7554;43.600;1.480;2023-06-26T09:26:04;28.60;1.00
14924;DHT22;7554;43.600;1.480;2023-06-26T09:28:35;29.10;1.00
14924;DHT22;7554;43.600;1.480;2023-06-26T09:31:21;29.30;1.00
14924;DHT22;7554;43.600;1.480;2023-06-26T09:33:48;29.70;1.00
14924;DHT22;7554;43.600;1.480;2023-06-26T09:36:20;29.60;1.00
14924;DHT22;7554;43.600;1.480;2023-06-26T09:38:47;28.60;1.00
14924;DHT22;7554;43.600;1.480;2023-06-26T09:41:16;27.90;1.00
14924;DHT22;7554;43.600;1.480;2023-06-26T09:43:48;27.60;1.00
14924;DHT22;7554;43.600;1.480;2023-06-26T09:46:16;27.40;1.00
14924;DHT22;7554;43.600;1.480;2023-06-26T09:48:45;27.10;1.00
14924;DHT22;7554;43.600;1.480;2023-06-26T09:51:13;26.70;1.00
14924;DHT22;7554;43.600;1.480;2023-06-26T09:53:42;26.50;1.00
14924;DHT22;7554;43.600;1.480;2023-06-26T09:56:15;26.50;1.00
14924;DHT22;7554;43.600;1.480;2023-06-26T09:58:44;26.60;1.00
14924;DHT22;7554;43.600;1.480;2023-06-26T10:01:11;26.60;1.00
14924;DHT22;7554;43.600;1.480;2023-06-26T10:03:39;27.10;1.00
14924;DHT22;7554;43.600;1.480;2023-06-26T10:06:09;27.60;1.00
14924;DHT22;7554;43.600;1.480;2023-06-26T10:08:39;27.80;1.00
14924;DHT22;7554;43.600;1.480;2023-06-26T10:11:08;27.70;1.00
14924;DHT22;7554;43.600;1.480;2023-06-26T10:13:41;27.40;1.00
14924;DHT22;7554;43.600;1.480;2023-06-26T10:16:12;27.50;1.00
14924;DHT22;7554;43.600;1.480;2023-06-26T10:18:40;27.00;1.00
14924;DHT22;7554;43.600;1.480;2023-06-26T10:21:11;26.70;1.00
14924;DHT22;7554;43.600;1.480;2023-06-26T10:23:41;26.40;1.00
14924;DHT22;7554;43.600;1.480;2023-06-26T10:26:11;26.20;1.00
14924;DHT22;7554;43.600;1.480;2023-06-26T10:28:40;26.20;1.00
14924;DHT22;7554;43.600;1.480;2023-06-26T10:31:10;26.20;1.00
14924;DHT22;7554;43.600;1.480;2023-06-26T10:33:38;26.10;1.00
14924;DHT22;7554;43.600;1.480;2023-06-26T10:36:14;25.90;1.00
14924;DHT22;7554;43.600;1.480;2023-06-26T10:38:49;26.00;1.00
14924;DHT22;7554;43.600;1.480;2023-06-26T10:41:20;25.90;1.00
14924;DHT22;7554;43.600;1.480;2023-06-26T10:43:50;25.80;1.00
14924;DHT22;7554;43.600;1.480;2023-06-26T10:46:18;25.90;1.00
14924;DHT22;7554;43.600;1.480;2023-06-26T10:48:56;25.90;1.00
14924;DHT22;7554;43.600;1.480;2023-06-26T10:51:26;25.90;1.00
14924;DHT22;7554;43.600;1.480;2023-06-26T10:53:54;25.90;1.00
14924;DHT22;7554;43.600;1.480;2023-06-26T10:56:41;26.00;1.00
14924;DHT22;7554;43.600;1.480;2023-06-26T10:59:14;26.20;1.00
14924;DHT22;7554;43.600;1.480;2023-06-26T11:01:43;26.10;1.00
14924;DHT22;7554;43.600;1.480;2023-06-26T11:04:10;26.50;1.00
14924;DHT22;7554;43.600;1.480;2023-06-26T11:06:41;26.70;1.00
14924;DHT22;7554;43.600;1.480;2023-06-26T11:09:13;26.80;1.00
14924;DHT22;7554;43.600;1.480;2023-06-26T11:12:05;26.60;1.00
14924;DHT22;7554;43.600;1.480;2023-06-26T11:14:32;26.60;1.00
14924;DHT22;7554;43.600;1.480;2023-06-26T11:17:03;26.40;1.00
14924;DHT22;7554;43.600;1.480;2023-06-26T11:19:30;26.20;1.00
14924;DHT22;7554;43.600;1.480;2023-06-26T11:22:05;26.20;1.00
14924;DHT22;7554;43.600;1.480;2023-06-26T11:24:33;26.30;1.00
14924;DHT22;7554;43.600;1.480;2023-06-26T11:27:02;26.30;1.00
14924;DHT22;7554;43.600;1.480;2023-06-26T11:29:31;26.30;1.00
14924;DHT22;7554;43.600;1.480;2023-06-26T11:32:00;26.30;1.00
14924;DHT22;7554;43.600;1.480;2023-06-26T11:34:30;26.50;1.00
14924;DHT22;7554;43.600;1.480;2023-06-26T11:36:58;26.90;1.00
14924;DHT22;7554;43.600;1.480;2023-06-26T11:39:28;27.10;1.00
14924;DHT22;7554;43.600;1.480;2023-06-26T11:41:56;27.30;1.00
14924;DHT22;7554;43.600;1.480;2023-06-26T11:44:24;27.60;1.00
14924;DHT22;7554;43.600;1.480;2023-06-26T11:46:56;27.70;1.00
14924;DHT22;7554;43.600;1.480;2023-06-26T11:49:24;27.80;1.00
14924;DHT22;7554;43.600;1.480;2023-06-26T11:51:53;27.70;1.00
14924;DHT22;7554;43.600;1.480;2023-06-26T11:54:25;27.60;1.00
14924;DHT22;7554;43.600;1.480;2023-06-26T11:56:56;27.50;1.00
14924;DHT22;7554;43.600;1.480;2023-06-26T11:59:31;27.50;1.00
14924;DHT22;7554;43.600;1.480;2023-06-26T12:01:58;27.50;1.00
14924;DHT22;7554;43.600;1.480;2023-06-26T12:04:26;27.50;1.00
14924;DHT22;7554;43.600;1.480;2023-06-26T12:06:55;27.60;1.00
14924;DHT22;7554;43.600;1.480;2023-06-26T12:09:24;28.00;1.00
14924;DHT22;7554;43.600;1.480;2023-06-26T12:11:55;28.30;1.00
14924;DHT22;7554;43.600;1.480;2023-06-26T12:14:23;28.30;1.00
14924;DHT22;7554;43.600;1.480;2023-06-26T12:16:52;28.10;1.00
14924;DHT22;7554;43.600;1.480;2023-06-26T12:19:24;28.50;1.00
14924;DHT22;7554;43.600;1.480;2023-06-26T12:21:52;28.70;1.00
14924;DHT22;7554;43.600;1.480;2023-06-26T12:24:20;28.70;1.00
14924;DHT22;7554;43.600;1.480;2023-06-26T12:26:50;28.50;1.00
14924;DHT22;7554;43.600;1.480;2023-06-26T12:29:21;28.60;1.00
14924;DHT22;7554;43.600;1.480;2023-06-26T12:31:52;28.70;1.00
14924;DHT22;7554;43.600;1.480;2023-06-26T12:34:21;28.90;1.00
14924;DHT22;7554;43.600;1.480;2023-06-26T12:36:50;29.10;1.00
14924;DHT22;7554;43.600;1.480;2023-06-26T12:39:18;29.40;1.00
14924;DHT22;7554;43.600;1.480;2023-06-26T12:41:47;29.50;1.00
14924;DHT22;7554;43.600;1.480;2023-06-26T12:44:21;29.70;1.00
14924;DHT22;7554;43.600;1.480;2023-06-26T12:46:52;29.90;1.00
14924;DHT22;7554;43.600;1.480;2023-06-26T12:49:20;29.90;1.00
14924;DHT22;7554;43.600;1.480;2023-06-26T12:51:48;29.90;1.00
14924;DHT22;7554;43.600;1.480;2023-06-26T12:54:15;30.10;1.00
14924;DHT22;7554;43.600;1.480;2023-06-26T12:56:43;30.30;1.00
14924;DHT22;7554;43.600;1.480;2023-06-26T12:59:10;30.50;1.00
14924;DHT22;7554;43.600;1.480;2023-06-26T13:01:39;30.50;1.00
14924;DHT22;7554;43.600;1.480;2023-06-26T13:04:06;30.50;1.00
14924;DHT22;7554;43.600;1.480;2023-06-26T13:06:34;30.40;1.00
14924;DHT22;7554;43.600;1.480;2023-06-26T13:09:01;30.50;1.00
14924;DHT22;7554;43.600;1.480;2023-06-26T13:11:30;30.20;1.00
14924;DHT22;7554;43.600;1.480;2023-06-26T13:13:57;30.00;1.00
14924;DHT22;7554;43.600;1.480;2023-06-26T13:16:25;30.20;1.00
14924;DHT22;7554;43.600;1.480;2023-06-26T13:18:54;30.40;1.00
14924;DHT22;7554;43.600;1.480;2023-06-26T13:21:21;30.40;1.00
14924;DHT22;7554;43.600;1.480;2023-06-26T13:23:49;30.40;1.00
14924;DHT22;7554;43.600;1.480;2023-06-26T13:26:16;30.60;1.00
14924;DHT22;7554;43.600;1.480;2023-06-26T13:28:43;30.50;1.00
14924;DHT22;7554;43.600;1.480;2023-06-26T13:31:11;30.60;1.00
14924;DHT22;7554;43.600;1.480;2023-06-26T13:33:38;30.70;1.00
14924;DHT22;7554;43.600;1.480;2023-06-26T13:36:07;30.60;1.00
14924;DHT22;7554;43.600;1.480;2023-06-26T13:38:34;30.40;1.00
14924;DHT22;7554;43.600;1.480;2023-06-26T13:41:02;30.60;1.00
14924;DHT22;7554;43.600;1.480;2023-06-26T13:43:29;30.70;1.00
14924;DHT22;7554;43.600;1.480;2023-06-26T13:45:57;30.60;1.00
14924;DHT22;7554;43.600;1.480;2023-06-26T13:48:24;30.80;1.00
14924;DHT22;7554;43.600;1.480;2023-06-26T13:50:52;30.90;1.00
14924;DHT22;7554;43.600;1.480;2023-06-26T13:53:21;30.60;1.00
14924;DHT22;7554;43.600;1.480;2023-06-26T13:55:48;30.50;1.00
14924;DHT22;7554;43.600;1.480;2023-06-26T13:58:15;30.20;1.00
14924;DHT22;7554;43.600;1.480;2023-06-26T14:00:43;30.30;1.00
14924;DHT22;7554;43.600;1.480;2023-06-26T14:03:11;30.10;1.00
14924;DHT22;7554;43.600;1.480;2023-06-26T14:05:38;30.20;1.00
14924;DHT22;7554;43.600;1.480;2023-06-26T14:08:07;30.30;1.00
14924;DHT22;7554;43.600;1.480;2023-06-26T14:10:37;30.30;1.00
14924;DHT22;7554;43.600;1.480;2023-06-26T14:13:05;30.20;1.00
14924;DHT22;7554;43.600;1.480;2023-06-26T14:15:33;30.40;1.00
14924;DHT22;7554;43.600;1.480;2023-06-26T14:18:01;30.40;1.00
14924;DHT22;7554;43.600;1.480;2023-06-26T14:20:29;30.20;1.00
14924;DHT22;7554;43.600;1.480;2023-06-26T14:22:58;30.30;1.00
14924;DHT22;7554;43.600;1.480;2023-06-26T14:25:26;30.20;1.00
14924;DHT22;7554;43.600;1.480;2023-06-26T14:27:56;30.30;1.00
14924;DHT22;7554;43.600;1.480;2023-06-26T14:30:24;30.40;1.00
14924;DHT22;7554;43.600;1.480;2023-06-26T14:32:51;30.10;1.00
14924;DHT22;7554;43.600;1.480;2023-06-26T14:35:19;30.20;1.00
14924;DHT22;7554;43.600;1.480;2023-06-26T14:37:47;30.10;1.00
14924;DHT22;7554;43.600;1.480;2023-06-26T14:40:15;29.80;1.00
14924;DHT22;7554;43.600;1.480;2023-06-26T14:42:42;29.60;1.00
14924;DHT22;7554;43.600;1.480;2023-06-26T14:45:12;29.30;1.00
14924;DHT22;7554;43.600;1.480;2023-06-26T14:47:40;29.50;1.00
14924;DHT22;7554;43.600;1.480;2023-06-26T14:50:08;29.80;1.00
14924;DHT22;7554;43.600;1.480;2023-06-26T14:52:36;29.70;1.00
14924;DHT22;7554;43.600;1.480;2023-06-26T14:55:03;29.90;1.00
14924;DHT22;7554;43.600;1.480;2023-06-26T14:57:31;30.00;1.00
14924;DHT22;7554;43.600;1.480;2023-06-26T14:59:58;29.80;1.00
14924;DHT22;7554;43.600;1.480;2023-06-26T15:02:27;29.60;1.00
14924;DHT22;7554;43.600;1.480;2023-06-26T15:04:54;29.40;1.00
14924;DHT22;7554;43.600;1.480;2023-06-26T15:07:21;29.20;1.00
14924;DHT22;7554;43.600;1.480;2023-06-26T15:09:49;29.50;1.00
14924;DHT22;7554;43.600;1.480;2023-06-26T15:12:16;29.70;1.00
14924;DHT22;7554;43.600;1.480;2023-06-26T15:14:43;29.60;1.00
14924;DHT22;7554;43.600;1.480;2023-06-26T15:17:11;29.70;1.00
14924;DHT22;7554;43.600;1.480;2023-06-26T15:19:39;29.40;1.00
14924;DHT22;7554;43.600;1.480;2023-06-26T15:22:07;29.10;1.00
14924;DHT22;7554;43.600;1.480;2023-06-26T15:24:34;29.10;1.00
14924;DHT22;7554;43.600;1.480;2023-06-26T15:27:01;29.30;1.00
14924;DHT22;7554;43.600;1.480;2023-06-26T15:29:29;29.30;1.00
14924;DHT22;7554;43.600;1.480;2023-06-26T15:31:56;29.20;1.00
14924;DHT22;7554;43.600;1.480;2023-06-26T15:34:23;29.50;1.00
14924;DHT22;7554;43.600;1.480;2023-06-26T15:36:52;29.50;1.00
14924;DHT22;7554;43.600;1.480;2023-06-26T15:39:19;29.50;1.00
14924;DHT22;7554;43.600;1.480;2023-06-26T15:41:47;29.60;1.00
14924;DHT22;7554;43.600;1.480;2023-06-26T15:44:14;29.70;1.00
14924;DHT22;7554;43.600;1.480;2023-06-26T15:46:41;29.70;1.00
14924;DHT22;7554;43.600;1.480;2023-06-26T15:49:09;29.70;1.00
14924;DHT22;7554;43.600;1.480;2023-06-26T15:51:36;29.70;1.00
14924;DHT22;7554;43.600;1.480;2023-06-26T15:54:05;29.70;1.00
14924;DHT22;7554;43.600;1.480;2023-06-26T15:56:33;29.70;1.00
14924;DHT22;7554;43.600;1.480;2023-06-26T15:59:00;29.60;1.00
14924;DHT22;7554;43.600;1.480;2023-06-26T16:01:27;29.50;1.00
14924;DHT22;7554;43.600;1.480;2023-06-26T16:03:54;29.20;1.00
14924;DHT22;7554;43.600;1.480;2023-06-26T16:06:22;29.20;1.00
14924;DHT22;7554;43.600;1.480;2023-06-26T16:08:49;29.40;1.00
14924;DHT22;7554;43.600;1.480;2023-06-26T16:11:19;29.40;1.00